sensor_id;sensor_type;location;lat;lon;timestamp;P1;durP1;ratioP1;P2;durP2;ratioP2
18013;SDS011;9132;47.946;10.394;2023-06-14T00:00:52;3.63;;;2.90;;
18013;SDS011;9132;47.946;10.394;2023-06-14T00:03:21;3.57;;;3.20;;
18013;SDS011;9132;47.946;10.394;2023-06-14T00:05:51;3.30;;;3.00;;
18013;SDS011;9132;47.946;10.394;2023-06-14T00:08:17;3.43;;;3.13;;
18013;SDS011;9132;47.946;10.394;2023-06-14T00:10:44;3.23;;;2.93;;
18013;SDS011;9132;47.946;10.394;2023-06-14T00:13:10;5.63;;;3.27;;
18013;SDS011;9132;47.946;10.394;2023-06-14T00:15:36;4.10;;;2.90;;
18013;SDS011;9132;47.946;10.394;2023-06-14T00:18:03;3.00;;;2.70;;
18013;SDS011;9132;47.946;10.394;2023-06-14T00:20:30;3.43;;;2.60;;
18013;SDS011;9132;47.946;10.394;2023-06-14T00:22:59;4.37;;;3.13;;
18013;SDS011;9132;47.946;10.394;2023-06-14T00:25:25;3.43;;;3.00;;
18013;SDS011;9132;47.946;10.394;2023-06-14T00:27:52;3.37;;;2.87;;
18013;SDS011;9132;47.946;10.394;2023-06-14T00:30:18;3.10;;;2.77;;
18013;SDS011;9132;47.946;10.394;2023-06-14T00:32:44;3.80;;;3.00;;
18013;SDS011;9132;47.946;10.394;2023-06-14T00:35:11;4.00;;;3.23;;
18013;SDS011;9132;47.946;10.394;2023-06-14T00:37:37;3.77;;;3.03;;
18013;SDS011;9132;47.946;10.394;2023-06-14T00:40:06;4.00;;;3.20;;
18013;SDS011;9132;47.946;10.394;2023-06-14T00:42:32;3.33;;;3.00;;
18013;SDS011;9132;47.946;10.394;2023-06-14T00:44:59;4.47;;;3.07;;
18013;SDS011;9132;47.946;10.394;2023-06-14T00:47:26;3.53;;;2.80;;
18013;SDS011;9132;47.946;10.394;2023-06-14T00:49:52;3.70;;;3.17;;
18013;SDS011;9132;47.946;10.394;2023-06-14T00:52:19;3.60;;;2.80;;
18013;SDS011;9132;47.946;10.394;2023-06-14T00:54:45;3.80;;;3.43;;
18013;SDS011;9132;47.946;10.394;2023-06-14T00:57:13;4.03;;;3.40;;
18013;SDS011;9132;47.946;10.394;2023-06-14T00:59:41;4.00;;;3.60;;
18013;SDS011;9132;47.946;10.394;2023-06-14T01:02:08;4.90;;;3.53;;
18013;SDS011;9132;47.946;10.394;2023-06-14T01:04:34;6.13;;;4.13;;
18013;SDS011;9132;47.946;10.394;2023-06-14T01:07:02;5.80;;;3.83;;
18013;SDS011;9132;47.946;10.394;2023-06-14T01:09:37;6.17;;;3.73;;
18013;SDS011;9132;47.946;10.394;2023-06-14T01:12:10;6.50;;;3.83;;
18013;SDS011;9132;47.946;10.394;2023-06-14T01:14:39;5.43;;;4.20;;
18013;SDS011;9132;47.946;10.394;2023-06-14T01:17:05;3.90;;;3.30;;
18013;SDS011;9132;47.946;10.394;2023-06-14T01:19:40;7.67;;;3.90;;
18013;SDS011;9132;47.946;10.394;2023-06-14T01:22:07;5.30;;;3.93;;
18013;SDS011;9132;47.946;10.394;2023-06-14T01:24:35;5.40;;;3.50;;
18013;SDS011;9132;47.946;10.394;2023-06-14T01:27:04;3.77;;;3.43;;
18013;SDS011;9132;47.946;10.394;2023-06-14T01:29:32;4.87;;;3.63;;
18013;SDS011;9132;47.946;10.394;2023-06-14T01:31:58;4.13;;;3.50;;
18013;SDS011;9132;47.946;10.394;2023-06-14T01:34:25;4.20;;;3.60;;
18013;SDS011;9132;47.946;10.394;2023-06-14T01:36:51;6.73;;;3.90;;
18013;SDS011;9132;47.946;10.394;2023-06-14T01:39:18;3.93;;;3.37;;
18013;SDS011;9132;47.946;10.394;2023-06-14T01:41:46;5.17;;;3.50;;
18013;SDS011;9132;47.946;10.394;2023-06-14T01:44:13;6.10;;;3.23;;
18013;SDS011;9132;47.946;10.394;2023-06-14T01:46:40;4.20;;;3.57;;
18013;SDS011;9132;47.946;10.394;2023-06-14T01:49:08;4.70;;;3.40;;
18013;SDS011;9132;47.946;10.394;2023-06-14T01:51:34;5.33;;;3.30;;
18013;SDS011;9132;47.946;10.394;2023-06-14T01:54:00;4.17;;;3.33;;
18013;SDS011;9132;47.946;10.394;2023-06-14T01:56:27;6.60;;;3.70;;
18013;SDS011;9132;47.946;10.394;2023-06-14T01:58:54;4.57;;;3.40;;
18013;SDS011;9132;47.946;10.394;2023-06-14T02:01:21;4.27;;;3.43;;
18013;SDS011;9132;47.946;10.394;2023-06-14T02:03:47;4.03;;;3.63;;
18013;SDS011;9132;47.946;10.394;2023-06-14T02:06:14;5.10;;;3.73;;
18013;SDS011;9132;47.946;10.394;2023-06-14T02:08:40;4.13;;;3.27;;
18013;SDS011;9132;47.946;10.394;2023-06-14T02:11:07;5.67;;;3.83;;
18013;SDS011;9132;47.946;10.394;2023-06-14T02:13:33;4.80;;;3.13;;
18013;SDS011;9132;47.946;10.394;2023-06-14T02:16:01;5.13;;;3.17;;
18013;SDS011;9132;47.946;10.394;2023-06-14T02:18:28;4.00;;;3.60;;
18013;SDS011;9132;47.946;10.394;2023-06-14T02:20:54;3.80;;;3.40;;
18013;SDS011;9132;47.946;10.394;2023-06-14T02:23:21;5.20;;;3.70;;
18013;SDS011;9132;47.946;10.394;2023-06-14T02:25:47;4.97;;;3.60;;
18013;SDS011;9132;47.946;10.394;2023-06-14T02:28:14;4.00;;;3.47;;
18013;SDS011;9132;47.946;10.394;2023-06-14T02:30:40;6.10;;;3.60;;
18013;SDS011;9132;47.946;10.394;2023-06-14T02:33:08;4.07;;;3.43;;
18013;SDS011;9132;47.946;10.394;2023-06-14T02:35:37;5.53;;;3.43;;
18013;SDS011;9132;47.946;10.394;2023-06-14T02:38:03;4.23;;;3.63;;
18013;SDS011;9132;47.946;10.394;2023-06-14T02:40:30;4.67;;;3.37;;
18013;SDS011;9132;47.946;10.394;2023-06-14T02:42:56;3.80;;;3.10;;
18013;SDS011;9132;47.946;10.394;2023-06-14T02:45:22;5.43;;;3.40;;
18013;SDS011;9132;47.946;10.394;2023-06-14T02:47:48;6.27;;;3.30;;
18013;SDS011;9132;47.946;10.394;2023-06-14T02:50:16;3.93;;;3.40;;
18013;SDS011;9132;47.946;10.394;2023-06-14T02:52:42;5.07;;;3.63;;
18013;SDS011;9132;47.946;10.394;2023-06-14T02:55:09;4.23;;;3.77;;
18013;SDS011;9132;47.946;10.394;2023-06-14T02:57:35;3.57;;;3.23;;
18013;SDS011;9132;47.946;10.394;2023-06-14T03:00:02;4.73;;;3.20;;
18013;SDS011;9132;47.946;10.394;2023-06-14T03:02:28;4.57;;;3.50;;
18013;SDS011;9132;47.946;10.394;2023-06-14T03:04:55;4.90;;;3.43;;
18013;SDS011;9132;47.946;10.394;2023-06-14T03:07:22;13.97;;;3.80;;
18013;SDS011;9132;47.946;10.394;2023-06-14T03:09:50;3.33;;;3.03;;
18013;SDS011;9132;47.946;10.394;2023-06-14T03:12:17;3.97;;;3.40;;
18013;SDS011;9132;47.946;10.394;2023-06-14T03:14:43;4.27;;;3.43;;
18013;SDS011;9132;47.946;10.394;2023-06-14T03:17:11;4.40;;;3.67;;
18013;SDS011;9132;47.946;10.394;2023-06-14T03:19:38;5.80;;;3.60;;
18013;SDS011;9132;47.946;10.394;2023-06-14T03:22:06;3.77;;;3.27;;
18013;SDS011;9132;47.946;10.394;2023-06-14T03:24:34;4.33;;;3.70;;
18013;SDS011;9132;47.946;10.394;2023-06-14T03:27:01;4.20;;;3.77;;
18013;SDS011;9132;47.946;10.394;2023-06-14T03:29:28;6.83;;;3.97;;
18013;SDS011;9132;47.946;10.394;2023-06-14T03:31:57;5.03;;;3.50;;
18013;SDS011;9132;47.946;10.394;2023-06-14T03:34:24;4.60;;;3.33;;
18013;SDS011;9132;47.946;10.394;2023-06-14T03:36:50;3.77;;;3.47;;
18013;SDS011;9132;47.946;10.394;2023-06-14T03:39:16;5.37;;;3.93;;
18013;SDS011;9132;47.946;10.394;2023-06-14T03:41:44;5.63;;;3.70;;
18013;SDS011;9132;47.946;10.394;2023-06-14T03:44:10;4.47;;;3.50;;
18013;SDS011;9132;47.946;10.394;2023-06-14T03:46:37;3.60;;;3.30;;
18013;SDS011;9132;47.946;10.394;2023-06-14T03:49:03;5.53;;;4.20;;
18013;SDS011;9132;47.946;10.394;2023-06-14T03:51:29;3.93;;;3.40;;
18013;SDS011;9132;47.946;10.394;2023-06-14T03:53:56;4.07;;;3.67;;
18013;SDS011;9132;47.946;10.394;2023-06-14T03:56:22;4.10;;;3.70;;
18013;SDS011;9132;47.946;10.394;2023-06-14T03:58:50;5.10;;;4.07;;
18013;SDS011;9132;47.946;10.394;2023-06-14T04:01:16;5.43;;;4.00;;
18013;SDS011;9132;47.946;10.394;2023-06-14T04:03:42;5.40;;;4.23;;
18013;SDS011;9132;47.946;10.394;2023-06-14T04:06:08;4.57;;;4.07;;
18013;SDS011;9132;47.946;10.394;2023-06-14T04:08:35;5.83;;;4.03;;
18013;SDS011;9132;47.946;10.394;2023-06-14T04:11:01;8.57;;;4.60;;
18013;SDS011;9132;47.946;10.394;2023-06-14T04:13:27;6.97;;;4.10;;
18013;SDS011;9132;47.946;10.394;2023-06-14T04:15:55;6.97;;;4.27;;
18013;SDS011;9132;47.946;10.394;2023-06-14T04:18:21;7.80;;;3.90;;
18013;SDS011;9132;47.946;10.394;2023-06-14T04:20:48;8.60;;;4.07;;
18013;SDS011;9132;47.946;10.394;2023-06-14T04:23:15;6.23;;;4.00;;
18013;SDS011;9132;47.946;10.394;2023-06-14T04:25:42;7.23;;;4.93;;
18013;SDS011;9132;47.946;10.394;2023-06-14T04:28:10;10.03;;;4.47;;
18013;SDS011;9132;47.946;10.394;2023-06-14T04:30:36;7.47;;;4.57;;
18013;SDS011;9132;47.946;10.394;2023-06-14T04:33:04;7.37;;;4.37;;
18013;SDS011;9132;47.946;10.394;2023-06-14T04:35:31;5.67;;;3.90;;
18013;SDS011;9132;47.946;10.394;2023-06-14T04:37:58;4.77;;;3.70;;
18013;SDS011;9132;47.946;10.394;2023-06-14T04:40:24;5.70;;;3.90;;
18013;SDS011;9132;47.946;10.394;2023-06-14T04:42:51;10.10;;;4.43;;
18013;SDS011;9132;47.946;10.394;2023-06-14T04:45:17;5.30;;;4.13;;
18013;SDS011;9132;47.946;10.394;2023-06-14T04:47:44;4.83;;;4.07;;
18013;SDS011;9132;47.946;10.394;2023-06-14T04:50:12;5.40;;;3.63;;
18013;SDS011;9132;47.946;10.394;2023-06-14T04:52:39;5.20;;;4.00;;
18013;SDS011;9132;47.946;10.394;2023-06-14T04:55:06;7.43;;;4.23;;
18013;SDS011;9132;47.946;10.394;2023-06-14T04:57:32;8.70;;;4.10;;
18013;SDS011;9132;47.946;10.394;2023-06-14T05:00:00;7.60;;;3.90;;
18013;SDS011;9132;47.946;10.394;2023-06-14T05:02:29;4.47;;;3.50;;
18013;SDS011;9132;47.946;10.394;2023-06-14T05:04:55;6.80;;;4.20;;
18013;SDS011;9132;47.946;10.394;2023-06-14T05:07:23;5.13;;;3.73;;
18013;SDS011;9132;47.946;10.394;2023-06-14T05:09:50;6.33;;;3.40;;
18013;SDS011;9132;47.946;10.394;2023-06-14T05:12:16;5.43;;;3.83;;
18013;SDS011;9132;47.946;10.394;2023-06-14T05:14:43;4.90;;;3.20;;
18013;SDS011;9132;47.946;10.394;2023-06-14T05:17:10;6.63;;;3.67;;
18013;SDS011;9132;47.946;10.394;2023-06-14T05:19:36;4.50;;;3.17;;
18013;SDS011;9132;47.946;10.394;2023-06-14T05:22:03;5.50;;;3.57;;
18013;SDS011;9132;47.946;10.394;2023-06-14T05:24:30;5.97;;;3.50;;
18013;SDS011;9132;47.946;10.394;2023-06-14T05:26:57;4.27;;;3.83;;
18013;SDS011;9132;47.946;10.394;2023-06-14T05:29:23;4.70;;;3.77;;
18013;SDS011;9132;47.946;10.394;2023-06-14T05:31:50;6.73;;;3.70;;
18013;SDS011;9132;47.946;10.394;2023-06-14T05:34:16;5.03;;;3.80;;
18013;SDS011;9132;47.946;10.394;2023-06-14T05:36:42;7.47;;;4.43;;
18013;SDS011;9132;47.946;10.394;2023-06-14T05:39:08;4.63;;;3.73;;
18013;SDS011;9132;47.946;10.394;2023-06-14T05:41:36;5.67;;;4.10;;
18013;SDS011;9132;47.946;10.394;2023-06-14T05:44:03;5.83;;;3.93;;
18013;SDS011;9132;47.946;10.394;2023-06-14T05:46:29;9.43;;;4.30;;
18013;SDS011;9132;47.946;10.394;2023-06-14T05:48:55;6.03;;;4.20;;
18013;SDS011;9132;47.946;10.394;2023-06-14T05:51:22;4.20;;;3.50;;
18013;SDS011;9132;47.946;10.394;2023-06-14T05:53:49;5.77;;;4.43;;
18013;SDS011;9132;47.946;10.394;2023-06-14T05:56:16;5.77;;;4.20;;
18013;SDS011;9132;47.946;10.394;2023-06-14T05:58:44;5.03;;;4.10;;
18013;SDS011;9132;47.946;10.394;2023-06-14T06:01:10;5.00;;;3.87;;
18013;SDS011;9132;47.946;10.394;2023-06-14T06:03:38;5.70;;;3.90;;
18013;SDS011;9132;47.946;10.394;2023-06-14T06:06:04;4.60;;;4.07;;
18013;SDS011;9132;47.946;10.394;2023-06-14T06:08:31;7.37;;;3.97;;
18013;SDS011;9132;47.946;10.394;2023-06-14T06:10:58;4.13;;;3.73;;
18013;SDS011;9132;47.946;10.394;2023-06-14T06:13:25;4.13;;;3.77;;
18013;SDS011;9132;47.946;10.394;2023-06-14T06:15:52;4.63;;;3.63;;
18013;SDS011;9132;47.946;10.394;2023-06-14T06:18:19;4.60;;;3.97;;
18013;SDS011;9132;47.946;10.394;2023-06-14T06:20:45;6.50;;;3.95;;
18013;SDS011;9132;47.946;10.394;2023-06-14T06:23:12;4.40;;;3.83;;
18013;SDS011;9132;47.946;10.394;2023-06-14T06:25:38;5.53;;;4.17;;
18013;SDS011;9132;47.946;10.394;2023-06-14T06:28:04;5.17;;;3.90;;
18013;SDS011;9132;47.946;10.394;2023-06-14T06:30:31;3.95;;;3.58;;
18013;SDS011;9132;47.946;10.394;2023-06-14T06:32:58;4.70;;;3.92;;
18013;SDS011;9132;47.946;10.394;2023-06-14T06:35:25;5.38;;;3.97;;
18013;SDS011;9132;47.946;10.394;2023-06-14T06:37:51;5.72;;;4.13;;
18013;SDS011;9132;47.946;10.394;2023-06-14T06:40:17;5.28;;;3.90;;
18013;SDS011;9132;47.946;10.394;2023-06-14T06:42:44;4.72;;;3.60;;
18013;SDS011;9132;47.946;10.394;2023-06-14T06:45:10;4.35;;;3.45;;
18013;SDS011;9132;47.946;10.394;2023-06-14T06:47:37;6.88;;;3.60;;
18013;SDS011;9132;47.946;10.394;2023-06-14T06:50:05;4.60;;;3.85;;
18013;SDS011;9132;47.946;10.394;2023-06-14T06:52:32;5.43;;;3.47;;
18013;SDS011;9132;47.946;10.394;2023-06-14T06:54:58;3.25;;;2.95;;
18013;SDS011;9132;47.946;10.394;2023-06-14T06:57:25;3.47;;;3.17;;
18013;SDS011;9132;47.946;10.394;2023-06-14T06:59:52;5.30;;;2.97;;
18013;SDS011;9132;47.946;10.394;2023-06-14T07:02:18;3.65;;;2.90;;
18013;SDS011;9132;47.946;10.394;2023-06-14T07:04:44;4.47;;;2.80;;
18013;SDS011;9132;47.946;10.394;2023-06-14T07:07:13;3.40;;;3.00;;
18013;SDS011;9132;47.946;10.394;2023-06-14T07:09:39;12.73;;;3.45;;
18013;SDS011;9132;47.946;10.394;2023-06-14T07:12:06;6.72;;;3.22;;
18013;SDS011;9132;47.946;10.394;2023-06-14T07:14:33;3.13;;;2.50;;
18013;SDS011;9132;47.946;10.394;2023-06-14T07:16:59;4.07;;;2.80;;
18013;SDS011;9132;47.946;10.394;2023-06-14T07:19:26;4.30;;;2.47;;
18013;SDS011;9132;47.946;10.394;2023-06-14T07:21:52;2.90;;;2.60;;
18013;SDS011;9132;47.946;10.394;2023-06-14T07:24:20;4.95;;;2.90;;
18013;SDS011;9132;47.946;10.394;2023-06-14T07:26:47;3.90;;;2.45;;
18013;SDS011;9132;47.946;10.394;2023-06-14T07:29:14;2.85;;;2.53;;
18013;SDS011;9132;47.946;10.394;2023-06-14T07:31:41;2.90;;;2.38;;
18013;SDS011;9132;47.946;10.394;2023-06-14T07:34:07;3.72;;;2.40;;
18013;SDS011;9132;47.946;10.394;2023-06-14T07:36:34;5.97;;;2.58;;
18013;SDS011;9132;47.946;10.394;2023-06-14T07:39:01;3.42;;;2.90;;
18013;SDS011;9132;47.946;10.394;2023-06-14T07:41:29;2.92;;;2.58;;
18013;SDS011;9132;47.946;10.394;2023-06-14T07:43:56;3.00;;;2.58;;
18013;SDS011;9132;47.946;10.394;2023-06-14T07:46:22;4.45;;;3.00;;
18013;SDS011;9132;47.946;10.394;2023-06-14T07:48:48;4.68;;;2.92;;
18013;SDS011;9132;47.946;10.394;2023-06-14T07:51:15;4.47;;;2.72;;
18013;SDS011;9132;47.946;10.394;2023-06-14T07:53:41;3.05;;;2.75;;
18013;SDS011;9132;47.946;10.394;2023-06-14T07:56:07;2.95;;;2.55;;
18013;SDS011;9132;47.946;10.394;2023-06-14T07:58:35;3.92;;;2.88;;
18013;SDS011;9132;47.946;10.394;2023-06-14T08:01:01;3.85;;;2.72;;
18013;SDS011;9132;47.946;10.394;2023-06-14T08:03:31;2.85;;;2.35;;
18013;SDS011;9132;47.946;10.394;2023-06-14T08:05:57;3.00;;;2.70;;
18013;SDS011;9132;47.946;10.394;2023-06-14T08:08:23;5.32;;;2.60;;
18013;SDS011;9132;47.946;10.394;2023-06-14T08:10:50;3.22;;;2.60;;
18013;SDS011;9132;47.946;10.394;2023-06-14T08:13:16;3.38;;;2.90;;
18013;SDS011;9132;47.946;10.394;2023-06-14T08:15:44;3.60;;;2.50;;
18013;SDS011;9132;47.946;10.394;2023-06-14T08:18:10;3.67;;;2.97;;
18013;SDS011;9132;47.946;10.394;2023-06-14T08:20:36;6.03;;;3.10;;
18013;SDS011;9132;47.946;10.394;2023-06-14T08:23:03;5.43;;;3.00;;
18013;SDS011;9132;47.946;10.394;2023-06-14T08:25:30;3.20;;;2.78;;
18013;SDS011;9132;47.946;10.394;2023-06-14T08:27:56;2.83;;;2.60;;
18013;SDS011;9132;47.946;10.394;2023-06-14T08:30:22;3.10;;;2.80;;
18013;SDS011;9132;47.946;10.394;2023-06-14T08:32:50;5.22;;;2.85;;
18013;SDS011;9132;47.946;10.394;2023-06-14T08:35:17;3.40;;;2.72;;
18013;SDS011;9132;47.946;10.394;2023-06-14T08:37:43;4.20;;;3.10;;
18013;SDS011;9132;47.946;10.394;2023-06-14T08:40:13;4.03;;;3.63;;
18013;SDS011;9132;47.946;10.394;2023-06-14T08:42:43;4.03;;;3.20;;
18013;SDS011;9132;47.946;10.394;2023-06-14T08:45:10;3.33;;;2.90;;
18013;SDS011;9132;47.946;10.394;2023-06-14T08:47:36;7.00;;;3.63;;
18013;SDS011;9132;47.946;10.394;2023-06-14T08:50:05;5.95;;;3.50;;
18013;SDS011;9132;47.946;10.394;2023-06-14T08:52:33;6.03;;;3.40;;
18013;SDS011;9132;47.946;10.394;2023-06-14T08:54:59;3.45;;;3.10;;
18013;SDS011;9132;47.946;10.394;2023-06-14T08:57:27;4.45;;;3.20;;
18013;SDS011;9132;47.946;10.394;2023-06-14T08:59:55;5.00;;;3.50;;
18013;SDS011;9132;47.946;10.394;2023-06-14T09:02:22;5.40;;;3.30;;
18013;SDS011;9132;47.946;10.394;2023-06-14T09:04:50;3.53;;;2.95;;
18013;SDS011;9132;47.946;10.394;2023-06-14T09:07:17;3.50;;;3.03;;
18013;SDS011;9132;47.946;10.394;2023-06-14T09:09:44;4.07;;;3.03;;
18013;SDS011;9132;47.946;10.394;2023-06-14T09:12:11;3.35;;;3.05;;
18013;SDS011;9132;47.946;10.394;2023-06-14T09:14:37;7.38;;;3.50;;
18013;SDS011;9132;47.946;10.394;2023-06-14T09:17:06;3.85;;;3.05;;
18013;SDS011;9132;47.946;10.394;2023-06-14T09:19:32;5.32;;;3.28;;
18013;SDS011;9132;47.946;10.394;2023-06-14T09:21:59;4.47;;;3.08;;
18013;SDS011;9132;47.946;10.394;2023-06-14T09:24:27;3.83;;;3.08;;
18013;SDS011;9132;47.946;10.394;2023-06-14T09:26:53;7.43;;;3.05;;
18013;SDS011;9132;47.946;10.394;2023-06-14T09:29:20;4.55;;;2.92;;
18013;SDS011;9132;47.946;10.394;2023-06-14T09:31:46;3.20;;;2.90;;
18013;SDS011;9132;47.946;10.394;2023-06-14T09:34:12;3.80;;;2.65;;
18013;SDS011;9132;47.946;10.394;2023-06-14T09:36:39;6.63;;;3.08;;
18013;SDS011;9132;47.946;10.394;2023-06-14T09:39:07;4.03;;;3.03;;
18013;SDS011;9132;47.946;10.394;2023-06-14T09:41:36;3.58;;;3.22;;
18013;SDS011;9132;47.946;10.394;2023-06-14T09:44:03;5.63;;;3.25;;
18013;SDS011;9132;47.946;10.394;2023-06-14T09:46:29;3.33;;;3.03;;
18013;SDS011;9132;47.946;10.394;2023-06-14T09:48:56;3.40;;;2.63;;
18013;SDS011;9132;47.946;10.394;2023-06-14T09:51:22;5.93;;;3.10;;
18013;SDS011;9132;47.946;10.394;2023-06-14T09:53:49;3.10;;;2.75;;
18013;SDS011;9132;47.946;10.394;2023-06-14T09:56:16;4.53;;;3.10;;
18013;SDS011;9132;47.946;10.394;2023-06-14T09:58:46;3.42;;;2.88;;
18013;SDS011;9132;47.946;10.394;2023-06-14T10:01:12;5.57;;;3.17;;
18013;SDS011;9132;47.946;10.394;2023-06-14T10:03:39;4.22;;;2.90;;
18013;SDS011;9132;47.946;10.394;2023-06-14T10:06:06;3.10;;;2.80;;
18013;SDS011;9132;47.946;10.394;2023-06-14T10:08:34;3.88;;;2.85;;
18013;SDS011;9132;47.946;10.394;2023-06-14T10:11:02;3.15;;;2.83;;
18013;SDS011;9132;47.946;10.394;2023-06-14T10:13:28;3.60;;;3.28;;
18013;SDS011;9132;47.946;10.394;2023-06-14T10:16:00;4.70;;;3.00;;
18013;SDS011;9132;47.946;10.394;2023-06-14T10:18:31;4.82;;;2.90;;
18013;SDS011;9132;47.946;10.394;2023-06-14T10:21:01;4.43;;;2.80;;
18013;SDS011;9132;47.946;10.394;2023-06-14T10:23:29;2.88;;;2.60;;
18013;SDS011;9132;47.946;10.394;2023-06-14T10:25:58;2.83;;;2.63;;
18013;SDS011;9132;47.946;10.394;2023-06-14T10:28:25;3.35;;;3.03;;
18013;SDS011;9132;47.946;10.394;2023-06-14T10:33:34;3.33;;;3.03;;
18013;SDS011;9132;47.946;10.394;2023-06-14T10:36:07;5.40;;;3.00;;
18013;SDS011;9132;47.946;10.394;2023-06-14T10:38:35;5.07;;;3.50;;
18013;SDS011;9132;47.946;10.394;2023-06-14T10:41:02;3.67;;;3.22;;
18013;SDS011;9132;47.946;10.394;2023-06-14T10:43:29;4.53;;;2.75;;
18013;SDS011;9132;47.946;10.394;2023-06-14T10:46:14;3.65;;;2.80;;
18013;SDS011;9132;47.946;10.394;2023-06-14T10:48:42;5.65;;;2.97;;
18013;SDS011;9132;47.946;10.394;2023-06-14T10:51:15;4.63;;;3.03;;
18013;SDS011;9132;47.946;10.394;2023-06-14T10:53:45;3.80;;;3.38;;
18013;SDS011;9132;47.946;10.394;2023-06-14T10:56:16;5.18;;;3.47;;
18013;SDS011;9132;47.946;10.394;2023-06-14T10:58:49;7.25;;;3.38;;
18013;SDS011;9132;47.946;10.394;2023-06-14T11:01:15;3.65;;;2.80;;
18013;SDS011;9132;47.946;10.394;2023-06-14T11:03:51;3.65;;;2.90;;
18013;SDS011;9132;47.946;10.394;2023-06-14T11:06:19;4.38;;;2.95;;
18013;SDS011;9132;47.946;10.394;2023-06-14T11:08:56;5.13;;;3.40;;
18013;SDS011;9132;47.946;10.394;2023-06-14T11:11:31;4.60;;;3.30;;
18013;SDS011;9132;47.946;10.394;2023-06-14T11:13:59;4.18;;;2.85;;
18013;SDS011;9132;47.946;10.394;2023-06-14T11:16:26;3.42;;;3.13;;
18013;SDS011;9132;47.946;10.394;2023-06-14T11:18:53;6.20;;;2.90;;
18013;SDS011;9132;47.946;10.394;2023-06-14T11:21:20;3.22;;;2.92;;
18013;SDS011;9132;47.946;10.394;2023-06-14T11:23:49;2.95;;;2.70;;
18013;SDS011;9132;47.946;10.394;2023-06-14T11:26:23;3.85;;;2.90;;
18013;SDS011;9132;47.946;10.394;2023-06-14T11:28:54;3.33;;;2.97;;
18013;SDS011;9132;47.946;10.394;2023-06-14T11:31:21;4.18;;;2.75;;
18013;SDS011;9132;47.946;10.394;2023-06-14T11:33:49;5.15;;;2.83;;
18013;SDS011;9132;47.946;10.394;2023-06-14T11:36:16;7.53;;;3.28;;
18013;SDS011;9132;47.946;10.394;2023-06-14T11:38:43;2.92;;;2.53;;
18013;SDS011;9132;47.946;10.394;2023-06-14T11:41:09;4.85;;;3.00;;
18013;SDS011;9132;47.946;10.394;2023-06-14T11:43:35;5.30;;;2.78;;
18013;SDS011;9132;47.946;10.394;2023-06-14T11:46:02;4.65;;;3.03;;
18013;SDS011;9132;47.946;10.394;2023-06-14T11:48:38;3.85;;;3.03;;
18013;SDS011;9132;47.946;10.394;2023-06-14T11:51:04;3.03;;;2.70;;
18013;SDS011;9132;47.946;10.394;2023-06-14T11:53:32;3.97;;;3.17;;
18013;SDS011;9132;47.946;10.394;2023-06-14T11:55:59;3.92;;;3.10;;
18013;SDS011;9132;47.946;10.394;2023-06-14T11:58:25;9.60;;;3.00;;
18013;SDS011;9132;47.946;10.394;2023-06-14T12:00:52;3.95;;;3.05;;
18013;SDS011;9132;47.946;10.394;2023-06-14T12:03:22;4.93;;;2.97;;
18013;SDS011;9132;47.946;10.394;2023-06-14T12:05:48;4.60;;;3.10;;
18013;SDS011;9132;47.946;10.394;2023-06-14T12:08:14;3.83;;;3.10;;
18013;SDS011;9132;47.946;10.394;2023-06-14T12:10:44;3.97;;;3.10;;
18013;SDS011;9132;47.946;10.394;2023-06-14T12:13:11;3.30;;;2.90;;
18013;SDS011;9132;47.946;10.394;2023-06-14T12:15:37;4.03;;;3.17;;
18013;SDS011;9132;47.946;10.394;2023-06-14T12:18:05;4.50;;;2.90;;
18013;SDS011;9132;47.946;10.394;2023-06-14T12:20:32;2.83;;;2.45;;
18013;SDS011;9132;47.946;10.394;2023-06-14T12:22:58;5.32;;;2.70;;
18013;SDS011;9132;47.946;10.394;2023-06-14T12:25:27;3.35;;;2.90;;
18013;SDS011;9132;47.946;10.394;2023-06-14T12:27:55;3.33;;;2.70;;
18013;SDS011;9132;47.946;10.394;2023-06-14T12:30:21;5.00;;;2.97;;
18013;SDS011;9132;47.946;10.394;2023-06-14T12:32:47;4.85;;;2.78;;
18013;SDS011;9132;47.946;10.394;2023-06-14T12:35:16;3.95;;;2.75;;
18013;SDS011;9132;47.946;10.394;2023-06-14T12:37:42;4.30;;;2.83;;
18013;SDS011;9132;47.946;10.394;2023-06-14T12:40:09;4.55;;;2.90;;
18013;SDS011;9132;47.946;10.394;2023-06-14T12:42:36;3.35;;;3.05;;
18013;SDS011;9132;47.946;10.394;2023-06-14T12:45:04;4.28;;;3.10;;
18013;SDS011;9132;47.946;10.394;2023-06-14T12:47:31;4.00;;;3.25;;
18013;SDS011;9132;47.946;10.394;2023-06-14T12:49:57;2.97;;;2.75;;
18013;SDS011;9132;47.946;10.394;2023-06-14T12:52:23;4.72;;;3.15;;
18013;SDS011;9132;47.946;10.394;2023-06-14T12:54:50;3.50;;;3.15;;
18013;SDS011;9132;47.946;10.394;2023-06-14T12:57:16;7.57;;;3.33;;
18013;SDS011;9132;47.946;10.394;2023-06-14T12:59:42;4.75;;;3.00;;
18013;SDS011;9132;47.946;10.394;2023-06-14T13:02:14;3.40;;;3.03;;
18013;SDS011;9132;47.946;10.394;2023-06-14T13:04:41;4.88;;;2.97;;
18013;SDS011;9132;47.946;10.394;2023-06-14T13:07:07;3.60;;;3.00;;
18013;SDS011;9132;47.946;10.394;2023-06-14T13:09:33;4.82;;;2.75;;
18013;SDS011;9132;47.946;10.394;2023-06-14T13:12:00;4.22;;;3.38;;
18013;SDS011;9132;47.946;10.394;2023-06-14T13:14:26;4.03;;;2.70;;
18013;SDS011;9132;47.946;10.394;2023-06-14T13:16:52;6.63;;;2.95;;
18013;SDS011;9132;47.946;10.394;2023-06-14T13:19:21;3.30;;;2.90;;
18013;SDS011;9132;47.946;10.394;2023-06-14T13:21:47;3.75;;;2.90;;
18013;SDS011;9132;47.946;10.394;2023-06-14T13:24:14;4.25;;;2.97;;
18013;SDS011;9132;47.946;10.394;2023-06-14T13:26:40;4.57;;;2.92;;
18013;SDS011;9132;47.946;10.394;2023-06-14T13:29:07;5.45;;;2.83;;
18013;SDS011;9132;47.946;10.394;2023-06-14T13:31:33;5.28;;;2.80;;
18013;SDS011;9132;47.946;10.394;2023-06-14T13:33:59;5.13;;;3.03;;
18013;SDS011;9132;47.946;10.394;2023-06-14T13:36:27;4.50;;;2.85;;
18013;SDS011;9132;47.946;10.394;2023-06-14T13:38:55;4.43;;;3.05;;
18013;SDS011;9132;47.946;10.394;2023-06-14T13:41:23;5.88;;;2.92;;
18013;SDS011;9132;47.946;10.394;2023-06-14T13:43:51;7.32;;;3.03;;
18013;SDS011;9132;47.946;10.394;2023-06-14T13:46:18;4.00;;;3.20;;
18013;SDS011;9132;47.946;10.394;2023-06-14T13:48:44;7.13;;;2.90;;
18013;SDS011;9132;47.946;10.394;2023-06-14T13:51:12;4.78;;;3.10;;
18013;SDS011;9132;47.946;10.394;2023-06-14T13:53:40;2.85;;;2.55;;
18013;SDS011;9132;47.946;10.394;2023-06-14T13:56:06;5.70;;;3.20;;
18013;SDS011;9132;47.946;10.394;2023-06-14T13:58:32;4.35;;;2.90;;
18013;SDS011;9132;47.946;10.394;2023-06-14T14:00:59;2.95;;;2.72;;
18013;SDS011;9132;47.946;10.394;2023-06-14T14:03:26;4.93;;;2.58;;
18013;SDS011;9132;47.946;10.394;2023-06-14T14:05:53;3.58;;;2.78;;
18013;SDS011;9132;47.946;10.394;2023-06-14T14:08:19;5.80;;;2.70;;
18013;SDS011;9132;47.946;10.394;2023-06-14T14:10:47;4.78;;;3.28;;
18013;SDS011;9132;47.946;10.394;2023-06-14T14:13:13;2.97;;;2.63;;
18013;SDS011;9132;47.946;10.394;2023-06-14T14:15:39;3.78;;;2.65;;
18013;SDS011;9132;47.946;10.394;2023-06-14T14:18:06;3.35;;;2.60;;
18013;SDS011;9132;47.946;10.394;2023-06-14T14:20:32;4.63;;;3.00;;
18013;SDS011;9132;47.946;10.394;2023-06-14T14:22:59;2.97;;;2.70;;
18013;SDS011;9132;47.946;10.394;2023-06-14T14:25:25;4.07;;;2.72;;
18013;SDS011;9132;47.946;10.394;2023-06-14T14:27:53;3.88;;;3.05;;
18013;SDS011;9132;47.946;10.394;2023-06-14T14:30:19;5.90;;;3.03;;
18013;SDS011;9132;47.946;10.394;2023-06-14T14:32:48;2.83;;;2.63;;
18013;SDS011;9132;47.946;10.394;2023-06-14T14:35:15;4.60;;;3.10;;
18013;SDS011;9132;47.946;10.394;2023-06-14T14:37:41;5.28;;;2.95;;
18013;SDS011;9132;47.946;10.394;2023-06-14T14:40:08;3.13;;;2.55;;
18013;SDS011;9132;47.946;10.394;2023-06-14T14:42:35;3.88;;;2.65;;
18013;SDS011;9132;47.946;10.394;2023-06-14T14:45:03;5.80;;;2.80;;
18013;SDS011;9132;47.946;10.394;2023-06-14T14:47:29;5.25;;;3.08;;
18013;SDS011;9132;47.946;10.394;2023-06-14T14:49:56;3.10;;;2.65;;